createdAt,value
2023-02-24T00:01:45.273Z,100605.94
2023-02-24T00:04:13.435Z,100603.16
2023-02-24T00:06:41.738Z,100603.16
2023-02-24T00:09:15.548Z,100599.47
2023-02-24T00:11:45.287Z,100599.50
2023-02-24T00:14:19.190Z,100594.75
2023-02-24T00:16:46.951Z,100595.31
2023-02-24T00:19:16.262Z,100593.97
2023-02-24T00:21:43.752Z,100595.00
2023-02-24T00:24:11.042Z,100586.38
2023-02-24T00:26:38.027Z,100590.28
2023-02-24T00:29:07.131Z,100591.44
2023-02-24T00:31:33.866Z,100587.84
2023-02-24T00:34:01.743Z,100595.09
2023-02-24T00:36:33.832Z,100599.13
2023-02-24T00:39:09.076Z,100592.94
2023-02-24T00:41:38.661Z,100588.84
2023-02-24T00:44:08.504Z,100590.41
2023-02-24T00:46:41.310Z,100597.63
2023-02-24T00:49:12.624Z,100600.41
2023-02-24T00:51:41.643Z,100600.41
2023-02-24T00:54:08.891Z,100591.81
2023-02-24T00:56:35.284Z,100596.44
2023-02-24T00:59:02.533Z,100595.69
2023-02-24T01:01:32.360Z,100590.06
2023-02-24T01:04:06.029Z,100587.00
2023-02-24T01:06:34.137Z,100582.78
2023-02-24T01:09:00.951Z,100587.16
2023-02-24T01:11:51.416Z,100585.81
2023-02-24T01:14:20.249Z,100592.44
2023-02-24T01:16:50.296Z,100589.13
2023-02-24T01:19:22.589Z,100590.41
2023-02-24T01:21:55.096Z,100587.78
2023-02-24T01:24:23.770Z,100584.59
2023-02-24T01:26:50.792Z,100586.53
2023-02-24T01:29:17.325Z,100586.97
2023-02-24T01:31:44.083Z,100581.91
2023-02-24T01:34:12.999Z,100577.56
2023-02-24T01:36:43.197Z,100577.09
2023-02-24T01:39:11.043Z,100573.28
2023-02-24T01:41:41.123Z,100566.97
2023-02-24T01:44:32.495Z,100561.91
2023-02-24T01:47:02.336Z,100561.06
2023-02-24T01:49:34.797Z,100554.81
2023-02-24T01:52:10.577Z,100554.81
2023-02-24T01:54:42.985Z,100555.72
2023-02-24T01:57:12.513Z,100558.72
2023-02-24T01:59:39.262Z,100562.66
2023-02-24T02:02:08.537Z,100559.81
2023-02-24T02:04:43.009Z,100552.59
2023-02-24T02:07:12.746Z,100553.09
2023-02-24T02:09:43.166Z,100551.25
2023-02-24T02:12:10.480Z,100542.31
2023-02-24T02:14:43.051Z,100546.50
2023-02-24T02:17:35.610Z,100554.00
2023-02-24T02:20:28.439Z,100545.56
2023-02-24T02:23:13.776Z,100537.50
2023-02-24T02:26:06.657Z,100536.41
2023-02-24T02:29:05.715Z,100539.03
2023-02-24T02:36:00.594Z,100546.28
2023-02-24T02:38:38.296Z,100541.88
2023-02-24T02:41:23.744Z,100540.13
2023-02-24T02:44:02.986Z,100541.47
2023-02-24T02:46:46.252Z,100533.66
2023-02-24T02:49:19.776Z,100537.97
2023-02-24T02:51:53.848Z,100540.81
2023-02-24T02:54:39.102Z,100529.25
2023-02-24T02:57:14.209Z,100528.47
2023-02-24T02:59:57.140Z,100530.91
2023-02-24T03:02:28.422Z,100525.03
2023-02-24T03:04:58.984Z,100525.19
2023-02-24T03:07:31.688Z,100524.09
2023-02-24T03:10:03.899Z,100523.50
2023-02-24T03:12:32.929Z,100514.69
2023-02-24T03:15:04.387Z,100509.06
2023-02-24T03:17:36.536Z,100511.09
2023-02-24T03:20:24.068Z,100508.97
2023-02-24T03:22:59.101Z,100508.66
2023-02-24T03:25:31.883Z,100503.84
2023-02-24T03:28:07.186Z,100511.22
2023-02-24T03:30:43.620Z,100500.72
2023-02-24T03:33:19.935Z,100506.16
2023-02-24T03:35:49.522Z,100499.69
2023-02-24T03:38:15.945Z,100491.88
2023-02-24T03:40:43.493Z,100486.34
2023-02-24T03:43:25.518Z,100487.63
2023-02-24T03:45:54.828Z,100485.06
2023-02-24T03:48:24.950Z,100473.16
2023-02-24T03:50:53.122Z,100485.84
2023-02-24T03:53:53.266Z,100476.25
2023-02-24T03:56:33.922Z,100466.25
2023-02-24T03:59:25.565Z,100459.38
2023-02-24T04:02:15.994Z,100459.13
2023-02-24T04:04:57.218Z,100465.59
2023-02-24T04:07:58.134Z,100458.47
2023-02-24T04:10:52.420Z,100450.31
2023-02-24T04:13:35.178Z,100456.94
2023-02-24T04:16:16.926Z,100449.22
2023-02-24T04:18:50.076Z,100452.97
2023-02-24T04:21:20.301Z,100456.94
2023-02-24T04:23:47.749Z,100443.69
2023-02-24T04:26:17.928Z,100442.69
2023-02-24T04:28:48.498Z,100446.78
2023-02-24T04:31:18.469Z,100441.06
2023-02-24T04:33:55.016Z,100429.59
2023-02-24T04:36:30.317Z,100434.78
2023-02-24T04:38:56.830Z,100435.44
2023-02-24T04:41:23.785Z,100431.59
2023-02-24T04:43:50.913Z,100429.06
2023-02-24T04:46:18.959Z,100420.94
2023-02-24T04:48:45.950Z,100414.91
2023-02-24T04:51:13.572Z,100416.56
2023-02-24T04:53:40.006Z,100408.34
2023-02-24T04:56:09.481Z,100413.16
2023-02-24T04:58:39.902Z,100404.06
2023-02-24T05:01:10.239Z,100408.44
2023-02-24T05:03:38.446Z,100395.84
2023-02-24T05:06:06.294Z,100392.66
2023-02-24T05:08:32.887Z,100388.13
2023-02-24T05:11:05.747Z,100381.91
2023-02-24T05:13:32.788Z,100384.97
2023-02-24T05:16:06.687Z,100380.25
2023-02-24T05:18:37.093Z,100388.56
2023-02-24T05:21:31.012Z,100376.84
2023-02-24T05:24:06.331Z,100371.84
2023-02-24T05:26:35.894Z,100372.53
2023-02-24T05:29:04.287Z,100376.75
2023-02-24T05:31:30.983Z,100369.44
2023-02-24T05:34:03.828Z,100369.19
2023-02-24T05:36:34.133Z,100360.56
2023-02-24T05:39:07.609Z,100364.75
2023-02-24T05:41:41.846Z,100352.41
2023-02-24T05:44:16.049Z,100355.84
2023-02-24T05:46:46.611Z,100351.25
2023-02-24T05:49:20.582Z,100347.38
2023-02-24T05:51:54.567Z,100354.41
2023-02-24T05:54:23.954Z,100346.63
2023-02-24T05:56:50.353Z,100336.88
2023-02-24T05:59:21.502Z,100342.75
2023-02-24T06:01:49.522Z,100341.84
2023-02-24T06:04:27.868Z,100333.47
2023-02-24T06:06:54.287Z,100339.34
2023-02-24T06:09:23.115Z,100338.31
2023-02-24T06:11:50.178Z,100336.72
2023-02-24T06:14:16.653Z,100340.91
2023-02-24T06:16:45.812Z,100325.56
2023-02-24T06:19:13.543Z,100328.59
2023-02-24T06:21:41.585Z,100314.16
2023-02-24T06:24:18.491Z,100316.94
2023-02-24T06:26:45.634Z,100318.88
2023-02-24T06:29:16.826Z,100310.25
2023-02-24T06:31:44.301Z,100315.59
2023-02-24T06:34:13.090Z,100318.13
2023-02-24T06:36:39.726Z,100305.53
2023-02-24T06:39:09.396Z,100308.13
2023-02-24T06:41:37.869Z,100303.59
2023-02-24T06:44:04.945Z,100290.25
2023-02-24T06:46:31.490Z,100293.78
2023-02-24T06:48:58.993Z,100289.84
2023-02-24T06:51:30.041Z,100288.41
2023-02-24T06:53:56.974Z,100282.38
2023-02-24T06:56:23.495Z,100285.66
2023-02-24T06:58:52.683Z,100292.84
2023-02-24T07:01:25.463Z,100278.09
2023-02-24T07:04:02.529Z,100281.22
2023-02-24T07:06:31.927Z,100276.63
2023-02-24T07:08:58.960Z,100278.09
2023-02-24T07:11:25.579Z,100274.25
2023-02-24T07:13:54.425Z,100269.66
2023-02-24T07:16:25.595Z,100270.72
2023-02-24T07:18:56.938Z,100267.72
2023-02-24T07:21:25.939Z,100264.63
2023-02-24T07:23:59.672Z,100257.66
2023-02-24T07:26:27.752Z,100256.22
2023-02-24T07:28:55.085Z,100254.53
2023-02-24T07:31:24.337Z,100254.03
2023-02-24T07:33:56.701Z,100252.59
2023-02-24T07:36:23.728Z,100244.53
2023-02-24T07:38:52.734Z,100240.25
2023-02-24T07:41:22.698Z,100229.84
2023-02-24T07:43:51.703Z,100221.63
2023-02-24T07:46:25.425Z,100225.44
2023-02-24T07:48:53.456Z,100215.06
2023-02-24T07:51:22.736Z,100214.97
2023-02-24T07:53:52.901Z,100208.50
2023-02-24T07:56:26.839Z,100196.06
2023-02-24T07:58:59.271Z,100195.22
2023-02-24T08:01:32.277Z,100191.25
2023-02-24T08:04:03.107Z,100189.09
2023-02-24T08:06:45.482Z,100185.06
2023-02-24T08:09:17.172Z,100189.06
2023-02-24T08:11:53.644Z,100169.69
2023-02-24T08:14:23.594Z,100175.84
2023-02-24T08:16:59.404Z,100163.63
2023-02-24T08:19:33.560Z,100162.06
2023-02-24T08:22:19.406Z,100151.31
2023-02-24T08:24:50.120Z,100152.88
2023-02-24T08:27:20.031Z,100149.50
2023-02-24T08:30:01.578Z,100152.09
2023-02-24T08:32:43.463Z,100145.25
2023-02-24T08:35:16.817Z,100132.28
2023-02-24T08:37:48.318Z,100141.78
2023-02-24T08:40:33.818Z,100122.81
2023-02-24T08:43:32.681Z,100133.66
2023-02-24T08:46:13.503Z,100121.63
2023-02-24T08:48:46.516Z,100121.56
2023-02-24T08:51:28.678Z,100114.25
2023-02-24T08:53:58.776Z,100110.72
2023-02-24T08:56:29.525Z,100099.16
2023-02-24T08:59:06.184Z,100098.63
2023-02-24T09:01:39.175Z,100092.34
2023-02-24T09:04:11.760Z,100089.78
2023-02-24T09:06:47.892Z,100094.00
2023-02-24T09:09:22.710Z,100078.50
2023-02-24T09:11:58.134Z,100076.84
2023-02-24T09:14:28.917Z,100078.97
2023-02-24T09:17:02.915Z,100074.84
2023-02-24T09:19:49.782Z,100070.03
2023-02-24T09:22:40.671Z,100060.34
2023-02-24T09:25:25.985Z,100061.13
2023-02-24T09:28:24.596Z,100048.34
2023-02-24T09:30:55.320Z,100057.28
2023-02-24T09:33:41.866Z,100051.22
2023-02-24T09:36:28.389Z,100040.72
2023-02-24T09:38:59.505Z,100029.63
2023-02-24T09:41:53.281Z,100040.72
2023-02-24T09:44:42.391Z,100023.00
2023-02-24T09:47:19.822Z,100023.06
2023-02-24T09:49:56.237Z,100007.59
2023-02-24T09:52:39.730Z,100016.22
2023-02-24T09:55:27.878Z,100008.19
2023-02-24T09:58:19.043Z,100015.41
2023-02-24T10:00:55.652Z,100010.56
2023-02-24T10:03:42.625Z,99993.97
2023-02-24T10:06:20.540Z,99995.69
2023-02-24T10:09:11.678Z,99988.31
2023-02-24T10:11:39.609Z,99990.50
2023-02-24T10:14:19.341Z,99988.03
2023-02-24T10:17:07.324Z,99975.28
2023-02-24T10:19:34.358Z,99978.06
2023-02-24T10:22:08.154Z,99980.00
2023-02-24T10:24:47.542Z,99978.69
2023-02-24T10:27:23.922Z,99978.41
2023-02-24T10:30:07.873Z,99973.06
2023-02-24T10:32:52.144Z,99964.53
2023-02-24T10:35:26.006Z,99966.78
2023-02-24T10:37:53.785Z,99955.69
2023-02-24T10:40:43.815Z,99961.44
2023-02-24T10:43:17.688Z,99946.69
2023-02-24T10:45:46.280Z,99960.00
2023-02-24T10:48:41.026Z,99942.34
2023-02-24T10:51:33.237Z,99956.50
2023-02-24T10:54:22.882Z,99946.16
2023-02-24T10:57:11.372Z,99951.50
2023-02-24T11:00:05.746Z,99946.63
2023-02-24T11:03:06.894Z,99942.53
2023-02-24T11:05:38.748Z,99932.53
2023-02-24T11:08:33.738Z,99932.69
2023-02-24T11:11:07.100Z,99927.03
2023-02-24T11:14:08.601Z,99926.31
2023-02-24T11:17:04.110Z,99916.38
2023-02-24T11:19:32.426Z,99914.75
2023-02-24T11:21:59.962Z,99909.63
2023-02-24T11:24:30.709Z,99896.13
2023-02-24T11:26:57.538Z,99887.94
2023-02-24T11:29:41.841Z,99885.19
2023-02-24T11:32:25.512Z,99882.72
2023-02-24T11:35:16.105Z,99871.84
2023-02-24T11:37:46.329Z,99875.78
2023-02-24T11:40:23.634Z,99866.59
2023-02-24T11:42:56.934Z,99853.91
2023-02-24T11:45:35.619Z,99854.47
2023-02-24T11:48:15.462Z,99851.53
2023-02-24T11:50:50.711Z,99842.81
2023-02-24T11:53:26.865Z,99841.75
2023-02-24T11:56:09.798Z,99831.09
2023-02-24T11:58:45.104Z,99822.75
2023-02-24T12:01:20.002Z,99814.56
2023-02-24T12:03:56.827Z,99807.75
2023-02-24T12:06:33.654Z,99799.41
2023-02-24T12:09:09.232Z,99789.22
2023-02-24T12:12:13.821Z,99796.69
2023-02-24T12:14:51.704Z,99777.00
2023-02-24T12:17:27.000Z,99776.03
2023-02-24T12:20:06.845Z,99777.47
2023-02-24T12:22:44.661Z,99770.28
2023-02-24T12:25:13.132Z,99769.59
2023-02-24T12:27:49.022Z,99765.53
2023-02-24T12:30:38.329Z,99754.47
2023-02-24T12:33:20.528Z,99758.00
2023-02-24T12:35:57.929Z,99755.47
2023-02-24T12:38:48.505Z,99744.66
2023-02-24T12:41:48.340Z,99739.59
2023-02-24T12:44:41.722Z,99737.06
2023-02-24T12:47:21.036Z,99722.91
2023-02-24T12:50:25.253Z,99719.53
2023-02-24T12:53:06.539Z,99718.16
2023-02-24T12:55:46.973Z,99710.09
2023-02-24T12:58:20.967Z,99701.22
2023-02-24T13:01:05.984Z,99688.88
2023-02-24T13:03:50.145Z,99686.84
2023-02-24T13:06:41.436Z,99681.47
2023-02-24T13:09:19.168Z,99671.53
2023-02-24T13:11:57.503Z,99662.72
2023-02-24T13:14:35.645Z,99658.31
2023-02-24T13:17:10.881Z,99660.66
2023-02-24T13:19:39.895Z,99659.53
2023-02-24T13:22:12.179Z,99642.50
2023-02-24T13:25:04.264Z,99638.59
2023-02-24T13:27:36.802Z,99635.50
2023-02-24T13:30:12.226Z,99637.16
2023-02-24T13:32:42.346Z,99635.06
2023-02-24T13:35:30.377Z,99629.81
2023-02-24T13:38:08.596Z,99632.94
2023-02-24T13:41:16.618Z,99619.63
2023-02-24T13:43:53.826Z,99614.06
2023-02-24T13:46:20.553Z,99612.16
2023-02-24T13:49:24.203Z,99612.72
2023-02-24T13:51:59.928Z,99610.22
2023-02-24T13:54:59.036Z,99603.25
2023-02-24T13:57:54.845Z,99598.88
2023-02-24T14:00:32.444Z,99590.59
2023-02-24T14:02:59.961Z,99593.56
2023-02-24T14:05:32.101Z,99591.66
2023-02-24T14:07:59.520Z,99579.00
2023-02-24T14:10:31.067Z,99577.88
2023-02-24T14:13:14.559Z,99577.59
2023-02-24T14:15:43.691Z,99569.56
2023-02-24T14:18:19.608Z,99573.47
2023-02-24T14:20:46.013Z,99570.75
2023-02-24T14:23:30.012Z,99571.28
2023-02-24T14:25:59.527Z,99562.41
2023-02-24T14:28:31.846Z,99559.56
2023-02-24T14:31:06.730Z,99547.81
2023-02-24T14:33:35.772Z,99547.53
2023-02-24T14:36:06.113Z,99537.00
2023-02-24T14:38:36.114Z,99537.88
2023-02-24T14:41:05.996Z,99538.13
2023-02-24T14:43:32.653Z,99535.34
2023-02-24T14:46:05.665Z,99535.13
2023-02-24T14:48:32.490Z,99534.84
2023-02-24T14:51:05.514Z,99534.25
2023-02-24T14:53:35.599Z,99523.47
2023-02-24T14:56:05.834Z,99519.34
2023-02-24T14:58:43.756Z,99518.25
2023-02-24T15:01:49.680Z,99516.00
2023-02-24T15:04:32.900Z,99513.53
2023-02-24T15:07:03.488Z,99499.94
2023-02-24T15:09:36.674Z,99500.78
2023-02-24T15:12:13.974Z,99499.91
2023-02-24T15:14:47.372Z,99487.81
2023-02-24T15:17:19.898Z,99475.94
2023-02-24T15:19:49.032Z,99471.22
2023-02-24T15:22:25.392Z,99474.19
2023-02-24T15:24:55.905Z,99462.34
2023-02-24T15:27:26.731Z,99460.34
2023-02-24T15:30:03.008Z,99472.25
2023-02-24T15:32:31.792Z,99465.06
2023-02-24T15:34:58.950Z,99452.41
2023-02-24T15:37:37.712Z,99445.75
2023-02-24T15:40:21.644Z,99434.63
2023-02-24T15:43:00.297Z,99435.81
2023-02-24T15:45:37.715Z,99428.28
2023-02-24T15:48:21.911Z,99432.44
2023-02-24T15:50:50.285Z,99425.56
2023-02-24T15:53:17.033Z,99426.13
2023-02-24T15:55:43.626Z,99422.00
2023-02-24T15:58:19.781Z,99416.47
2023-02-24T16:00:46.466Z,99420.88
2023-02-24T16:03:12.884Z,99412.06
2023-02-24T16:05:39.442Z,99410.69
2023-02-24T16:08:13.538Z,99414.28
2023-02-24T16:10:40.575Z,99402.13
2023-02-24T16:13:17.301Z,99391.34
2023-02-24T16:15:45.035Z,99394.94
2023-02-24T16:18:20.913Z,99391.06
2023-02-24T16:20:54.335Z,99390.84
2023-02-24T16:23:22.922Z,99385.53
2023-02-24T16:25:53.929Z,99386.13
2023-02-24T16:28:21.324Z,99391.06
2023-02-24T16:30:49.681Z,99381.41
2023-02-24T16:33:17.943Z,99386.16
2023-02-24T16:35:45.186Z,99378.97
2023-02-24T16:38:16.395Z,99375.34
2023-02-24T16:40:45.433Z,99377.84
2023-02-24T16:43:13.324Z,99369.00
2023-02-24T16:45:41.273Z,99376.50
2023-02-24T16:48:20.599Z,99361.53
2023-02-24T16:50:47.890Z,99362.91
2023-02-24T16:53:17.242Z,99358.44
2023-02-24T16:55:43.658Z,99359.88
2023-02-24T16:58:11.652Z,99362.38
2023-02-24T17:00:39.479Z,99352.44
2023-02-24T17:03:16.772Z,99361.00
2023-02-24T17:05:44.356Z,99349.69
2023-02-24T17:08:11.593Z,99351.34
2023-02-24T17:10:39.281Z,99346.63
2023-02-24T17:13:07.064Z,99348.03
2023-02-24T17:15:33.565Z,99355.47
2023-02-24T17:18:00.008Z,99352.16
2023-02-24T17:20:26.975Z,99348.59
2023-02-24T17:22:53.782Z,99345.81
2023-02-24T17:25:26.914Z,99341.66
2023-02-24T17:27:54.518Z,99338.91
2023-02-24T17:30:26.891Z,99334.78
2023-02-24T17:32:53.662Z,99333.09
2023-02-24T17:35:20.153Z,99330.06
2023-02-24T17:37:46.573Z,99335.03
2023-02-24T17:40:13.402Z,99327.03
2023-02-24T17:43:03.802Z,99327.03
2023-02-24T17:45:30.347Z,99325.94
2023-02-24T17:47:56.759Z,99312.66
2023-02-24T17:50:23.151Z,99303.81
2023-02-24T17:52:52.251Z,99301.59
2023-02-24T17:55:24.380Z,99299.38
2023-02-24T17:57:55.682Z,99294.97
2023-02-24T18:00:23.234Z,99302.72
2023-02-24T18:02:49.713Z,99289.44
2023-02-24T18:05:16.172Z,99289.44
2023-02-24T18:07:42.648Z,99289.44
2023-02-24T18:10:09.464Z,99279.75
2023-02-24T18:12:35.976Z,99267.31
2023-02-24T18:15:08.539Z,99277.00
2023-02-24T18:17:36.776Z,99272.28
2023-02-24T18:20:04.217Z,99269.22
2023-02-24T18:22:30.667Z,99265.06
2023-02-24T18:24:57.146Z,99267.56
2023-02-24T18:27:23.579Z,99262.88
2023-02-24T18:29:49.966Z,99261.22
2023-02-24T18:32:16.623Z,99259.84
2023-02-24T18:34:43.214Z,99252.06
2023-02-24T18:37:09.614Z,99249.31
2023-02-24T18:39:36.024Z,99242.94
2023-02-24T18:42:02.439Z,99244.06
2023-02-24T18:44:29.417Z,99228.56
2023-02-24T18:46:55.918Z,99228.59
2023-02-24T18:49:22.358Z,99230.50
2023-02-24T18:51:49.065Z,99228.84
2023-02-24T18:54:16.411Z,99230.50
2023-02-24T18:56:43.162Z,99236.59
2023-02-24T18:59:09.795Z,99231.63
2023-02-24T19:01:38.966Z,99223.56
2023-02-24T19:04:07.240Z,99213.63
2023-02-24T19:06:35.326Z,99218.03
2023-02-24T19:09:11.848Z,99210.88
2023-02-24T19:11:39.601Z,99213.06
2023-02-24T19:14:06.702Z,99208.59
2023-02-24T19:16:33.930Z,99200.56
2023-02-24T19:19:00.492Z,99202.25
2023-02-24T19:21:29.460Z,99194.78
2023-02-24T19:23:55.867Z,99197.53
2023-02-24T19:26:25.549Z,99183.94
2023-02-24T19:28:53.326Z,99184.81
2023-02-24T19:31:25.902Z,99183.38
2023-02-24T19:33:53.375Z,99180.63
2023-02-24T19:36:20.857Z,99174.22
2023-02-24T19:38:47.485Z,99174.00
2023-02-24T19:41:14.002Z,99178.41
2023-02-24T19:43:42.058Z,99181.72
2023-02-24T19:46:10.774Z,99175.63
2023-02-24T19:48:37.430Z,99168.72
2023-02-24T19:51:24.030Z,99176.22
2023-02-24T19:53:55.404Z,99172.59
2023-02-24T19:56:28.059Z,99170.88
2023-02-24T19:58:57.437Z,99165.09
2023-02-24T20:01:25.089Z,99163.72
2023-02-24T20:03:54.792Z,99163.13
2023-02-24T20:06:27.037Z,99159.00
2023-02-24T20:08:54.285Z,99162.59
2023-02-24T20:11:21.395Z,99158.44
2023-02-24T20:13:48.123Z,99157.63
2023-02-24T20:16:17.600Z,99155.34
2023-02-24T20:18:44.680Z,99152.06
2023-02-24T20:21:12.257Z,99140.41
2023-02-24T20:23:39.877Z,99142.59
2023-02-24T20:26:06.984Z,99141.25
2023-02-24T20:28:33.544Z,99146.25
2023-02-24T20:31:06.635Z,99138.47
2023-02-24T20:33:33.248Z,99146.53
2023-02-24T20:35:59.674Z,99136.81
2023-02-24T20:38:26.083Z,99144.59
2023-02-24T20:40:59.891Z,99132.13
2023-02-24T20:43:27.159Z,99136.53
2023-02-24T20:45:53.620Z,99132.69
2023-02-24T20:48:20.465Z,99126.56
2023-02-24T20:50:46.871Z,99124.41
2023-02-24T20:53:13.307Z,99128.25
2023-02-24T20:55:39.760Z,99128.00
2023-02-24T20:58:06.474Z,99117.25
2023-02-24T21:00:38.414Z,99111.38
2023-02-24T21:03:07.674Z,99113.88
2023-02-24T21:05:34.422Z,99109.75
2023-02-24T21:08:00.919Z,99099.47
2023-02-24T21:10:27.419Z,99099.97
2023-02-24T21:12:53.820Z,99100.31
2023-02-24T21:15:20.249Z,99096.69
2023-02-24T21:17:46.663Z,99091.16
2023-02-24T21:20:13.945Z,99091.41
2023-02-24T21:22:41.475Z,99082.84
2023-02-24T21:25:10.709Z,99081.69
2023-02-24T21:27:38.349Z,99079.16
2023-02-24T21:30:10.304Z,99082.44
2023-02-24T21:32:37.176Z,99084.06
2023-02-24T21:35:04.005Z,99072.22
2023-02-24T21:37:30.419Z,99065.63
2023-02-24T21:39:56.877Z,99070.84
2023-02-24T21:42:23.528Z,99068.38
2023-02-24T21:44:52.959Z,99066.13
2023-02-24T21:47:20.402Z,99057.84
2023-02-24T21:49:46.832Z,99064.44
2023-02-24T21:52:13.462Z,99055.63
2023-02-24T21:54:40.195Z,99058.03
2023-02-24T21:57:06.611Z,99045.63
2023-02-24T21:59:33.017Z,99051.94
2023-02-24T22:01:59.535Z,99042.84
2023-02-24T22:04:26.048Z,99044.25
2023-02-24T22:06:52.474Z,99036.50
2023-02-24T22:09:19.354Z,99042.88
2023-02-24T22:11:47.522Z,99039.50
2023-02-24T22:14:15.014Z,99037.84
2023-02-24T22:16:42.214Z,99031.25
2023-02-24T22:19:08.861Z,99034.84
2023-02-24T22:21:35.339Z,99032.06
2023-02-24T22:24:03.302Z,99023.22
2023-02-24T22:26:30.802Z,99024.13
2023-02-24T22:28:57.791Z,99027.41
2023-02-24T22:31:27.384Z,99026.28
2023-02-24T22:33:53.859Z,99029.84
2023-02-24T22:36:25.030Z,99022.91
2023-02-24T22:38:52.013Z,99024.91
2023-02-24T22:41:22.028Z,99027.34
2023-02-24T22:43:48.496Z,99019.25
2023-02-24T22:46:18.277Z,99017.94
2023-02-24T22:48:44.781Z,99018.16
2023-02-24T22:51:13.062Z,99024.25
2023-02-24T22:53:42.497Z,99016.22
2023-02-24T22:56:12.084Z,99015.94
2023-02-24T22:58:38.925Z,99013.44
2023-02-24T23:01:10.853Z,99007.56
2023-02-24T23:03:37.393Z,99014.00
2023-02-24T23:06:07.028Z,99020.63
2023-02-24T23:08:36.693Z,99017.25
2023-02-24T23:11:09.133Z,99016.41
2023-02-24T23:13:35.651Z,99010.31
2023-02-24T23:16:03.513Z,99011.34
2023-02-24T23:18:31.463Z,99010.50
2023-02-24T23:20:59.573Z,99019.50
2023-02-24T23:23:27.608Z,99004.47
2023-02-24T23:25:54.103Z,99011.63
2023-02-24T23:28:20.898Z,99007.56
2023-02-24T23:30:48.042Z,99000.94
2023-02-24T23:33:14.892Z,98999.03
2023-02-24T23:35:42.194Z,99009.84
2023-02-24T23:38:09.251Z,99006.78
2023-02-24T23:40:49.266Z,98999.66
2023-02-24T23:43:16.736Z,99010.72
2023-02-24T23:45:43.171Z,99001.59
2023-02-24T23:48:10.987Z,98996.91
2023-02-24T23:50:37.755Z,98993.88
2023-02-24T23:53:04.642Z,98991.97
2023-02-24T23:55:33.958Z,98983.38
2023-02-24T23:58:01.585Z,98985.31
